Colony, Kansas
Current Conditions -  °F | °C
As of 5:52 PM on Wednesday 26 Nov 2014 (Local Time) from KCNU Reporting Station
Overcast Overcast  
Wind Chill: 28°   Ceiling: 3500
Heat Index: 38°   Visibility: 10mi
Dew Point: 26°   Wind: 18mph
Humidity: 62%   Direction: 320°NW
Pressure: 30.27"   Gusts: 26mph
Location:  38.07°N, 95.37°W
Report Text: KCNU 262352Z AUTO 32016G23KT 10SM OVC035 03/M03 A3027 RMK AO2 PK WND 32027/2254 SLP254 T00331033 10089 20028 51040
Loading
Personal Weather Stations






























Interactive Weather Map New forecast layout! Learn more

10-Day Weather Forecast

Advertisements
Track Severe Weather on mobile